createdAt,value
2023-03-01T00:00:24.975Z,81.60
2023-03-01T00:03:48.642Z,84.50
2023-03-01T00:06:52.264Z,72.90
2023-03-01T00:09:55.530Z,56.20
2023-03-01T00:12:58.752Z,53.70
2023-03-01T00:16:06.663Z,51.70
2023-03-01T00:19:20.779Z,60.00
2023-03-01T00:22:24.486Z,67.30
2023-03-01T00:25:27.740Z,56.90
2023-03-01T00:28:30.970Z,53.20
2023-03-01T00:31:35.244Z,77.10
2023-03-01T00:34:38.524Z,108.10
2023-03-01T00:37:42.460Z,122.20
2023-03-01T00:40:45.703Z,111.10
2023-03-01T00:43:49.443Z,81.20
2023-03-01T00:46:52.674Z,80.30
2023-03-01T00:49:55.853Z,62.80
2023-03-01T00:52:59.261Z,55.60
2023-03-01T00:56:03.660Z,60.80
2023-03-01T00:59:06.888Z,57.30
2023-03-01T01:02:10.275Z,58.50
2023-03-01T01:05:13.801Z,60.10
2023-03-01T01:08:17.023Z,64.70
2023-03-01T01:11:21.739Z,63.40
2023-03-01T01:14:25.031Z,65.00
2023-03-01T01:17:28.319Z,59.50
2023-03-01T01:20:33.816Z,67.40
2023-03-01T01:23:38.449Z,62.30
2023-03-01T01:26:42.786Z,55.50
2023-03-01T01:29:46.087Z,48.60
2023-03-01T01:32:49.351Z,44.60
2023-03-01T01:35:53.288Z,46.90
2023-03-01T01:38:56.655Z,46.80
2023-03-01T01:42:01.850Z,45.10
2023-03-01T01:45:33.103Z,44.30
2023-03-01T01:48:47.701Z,40.70
2023-03-01T01:51:55.077Z,45.80
2023-03-01T01:55:12.795Z,45.20
2023-03-01T01:58:20.273Z,42.70
2023-03-01T02:01:23.813Z,49.10
2023-03-01T02:04:27.301Z,47.50
2023-03-01T02:07:31.349Z,45.50
2023-03-01T02:10:35.952Z,43.70
2023-03-01T02:13:40.193Z,48.20
2023-03-01T02:16:44.123Z,49.40
2023-03-01T02:20:15.355Z,55.10
2023-03-01T02:23:18.922Z,56.90
2023-03-01T02:26:35.981Z,49.10
2023-03-01T02:29:39.603Z,49.80
2023-03-01T02:32:43.145Z,48.00
2023-03-01T02:35:46.851Z,49.00
2023-03-01T02:38:54.479Z,54.60
2023-03-01T02:42:00.003Z,51.60
2023-03-01T02:45:04.383Z,50.80
2023-03-01T02:48:07.758Z,51.70
2023-03-01T02:51:43.699Z,49.60
2023-03-01T02:54:59.097Z,47.90
2023-03-01T02:58:04.448Z,49.70
2023-03-01T03:01:10.276Z,47.60
2023-03-01T03:04:19.127Z,48.20
2023-03-01T03:07:23.991Z,54.40
2023-03-01T03:10:33.535Z,54.60
2023-03-01T03:13:36.800Z,53.90
2023-03-01T03:16:46.072Z,56.20
2023-03-01T03:19:49.542Z,56.10
2023-03-01T03:22:55.100Z,50.70
2023-03-01T03:25:58.237Z,52.10
2023-03-01T03:29:01.998Z,52.00
2023-03-01T03:32:05.382Z,52.10
2023-03-01T03:35:10.835Z,57.00
2023-03-01T03:38:16.921Z,56.90
2023-03-01T03:41:20.174Z,66.20
2023-03-01T03:44:23.382Z,66.60
2023-03-01T03:47:26.649Z,69.40
2023-03-01T03:50:30.340Z,63.60
2023-03-01T03:53:33.652Z,59.80
2023-03-01T03:56:37.643Z,55.60
2023-03-01T03:59:41.947Z,58.60
2023-03-01T04:02:46.223Z,56.80
2023-03-01T04:05:51.652Z,54.20
2023-03-01T04:08:59.222Z,59.20
2023-03-01T04:12:02.445Z,56.10
2023-03-01T04:15:14.094Z,54.70
2023-03-01T04:18:18.936Z,55.00
2023-03-01T04:21:22.835Z,51.70
2023-03-01T04:24:26.091Z,57.00
2023-03-01T04:27:29.543Z,49.60
2023-03-01T04:30:36.748Z,53.10
2023-03-01T04:33:55.087Z,52.80
2023-03-01T04:36:58.346Z,61.00
2023-03-01T04:40:13.310Z,56.10
2023-03-01T04:43:16.605Z,66.70
2023-03-01T04:46:21.986Z,62.00
2023-03-01T04:49:25.336Z,61.10
2023-03-01T04:52:28.539Z,58.80
2023-03-01T04:55:32.571Z,57.30
2023-03-01T04:58:35.996Z,58.80
2023-03-01T05:01:40.185Z,54.80
2023-03-01T05:04:43.457Z,53.80
2023-03-01T05:07:46.652Z,57.00
2023-03-01T05:10:52.523Z,54.30
2023-03-01T05:13:56.494Z,53.40
2023-03-01T05:17:04.946Z,58.80
2023-03-01T05:20:11.860Z,64.20
2023-03-01T05:23:15.080Z,66.40
2023-03-01T05:26:28.785Z,71.20
2023-03-01T05:29:35.877Z,62.10
2023-03-01T05:32:39.093Z,64.00
2023-03-01T05:35:44.212Z,67.50
2023-03-01T05:38:47.416Z,62.30
2023-03-01T05:42:02.192Z,59.10
2023-03-01T05:45:05.688Z,63.60
2023-03-01T05:48:10.199Z,67.70
2023-03-01T05:51:13.449Z,69.60
2023-03-01T05:54:17.111Z,69.90
2023-03-01T05:57:21.296Z,70.70
2023-03-01T06:00:24.723Z,64.90
2023-03-01T06:03:27.948Z,64.70
2023-03-01T06:06:35.715Z,65.00
2023-03-01T06:09:38.905Z,67.60
2023-03-01T06:12:43.486Z,68.90
2023-03-01T06:15:46.718Z,64.20
2023-03-01T06:18:49.972Z,68.90
2023-03-01T06:21:53.264Z,73.70
2023-03-01T06:24:56.519Z,72.50
2023-03-01T06:27:59.813Z,70.40
2023-03-01T06:31:03.504Z,66.70
2023-03-01T06:34:06.790Z,80.20
2023-03-01T06:37:10.058Z,102.10
2023-03-01T06:40:14.892Z,130.40
2023-03-01T06:43:18.226Z,133.90
2023-03-01T06:46:22.632Z,134.80
2023-03-01T06:49:25.932Z,127.00
2023-03-01T06:52:30.492Z,143.30
2023-03-01T06:55:33.883Z,152.80
2023-03-01T06:58:37.610Z,141.60
2023-03-01T07:01:40.912Z,135.50
2023-03-01T07:04:44.166Z,127.00
2023-03-01T07:07:47.464Z,97.70
2023-03-01T07:10:56.966Z,82.20
2023-03-01T07:14:01.142Z,71.10
2023-03-01T07:17:04.373Z,57.50
2023-03-01T07:20:07.960Z,54.20
2023-03-01T07:23:11.204Z,47.20
2023-03-01T07:26:14.367Z,67.70
2023-03-01T07:29:18.796Z,73.50
2023-03-01T07:32:22.161Z,59.00
2023-03-01T07:35:28.503Z,47.90
2023-03-01T07:38:32.398Z,43.70
2023-03-01T07:41:35.770Z,40.10
2023-03-01T07:44:39.080Z,40.90
2023-03-01T07:47:42.418Z,40.70
2023-03-01T07:50:48.944Z,37.20
2023-03-01T07:53:52.166Z,37.20
2023-03-01T07:58:09.815Z,37.50
2023-03-01T08:01:16.541Z,36.20
2023-03-01T08:04:20.081Z,31.00
2023-03-01T08:07:23.491Z,28.00
2023-03-01T08:10:26.902Z,27.70
2023-03-01T08:13:31.008Z,27.80
2023-03-01T08:16:36.397Z,26.90
2023-03-01T08:19:39.730Z,23.30
2023-03-01T08:22:43.025Z,23.90
2023-03-01T08:25:46.327Z,23.30
2023-03-01T08:28:50.656Z,22.70
2023-03-01T08:31:54.184Z,27.00
2023-03-01T08:34:57.780Z,25.60
2023-03-01T08:38:01.350Z,24.30
2023-03-01T08:41:05.490Z,20.90
2023-03-01T08:44:10.605Z,23.70
2023-03-01T08:47:14.152Z,19.20
2023-03-01T08:50:17.521Z,23.00
2023-03-01T08:53:20.902Z,22.30
2023-03-01T08:56:24.182Z,20.30
2023-03-01T08:59:28.122Z,21.00
2023-03-01T09:02:31.587Z,23.50
2023-03-01T09:05:35.528Z,18.50
2023-03-01T09:08:41.378Z,20.50
2023-03-01T09:11:51.178Z,19.90
2023-03-01T09:14:57.819Z,21.90
2023-03-01T09:18:01.471Z,21.00
2023-03-01T09:21:09.707Z,25.30
2023-03-01T09:24:15.795Z,24.50
2023-03-01T09:27:20.722Z,26.50
2023-03-01T09:30:25.264Z,26.00
2023-03-01T09:33:30.924Z,25.70
2023-03-01T09:36:35.160Z,26.70
2023-03-01T09:39:38.508Z,25.40
2023-03-01T09:42:53.771Z,30.60
2023-03-01T09:46:04.580Z,29.50
2023-03-01T09:49:15.463Z,28.40
2023-03-01T09:52:28.000Z,29.60
2023-03-01T09:58:40.952Z,28.00
2023-03-01T10:02:22.666Z,23.50
2023-03-01T10:05:44.293Z,24.00
2023-03-01T10:08:56.055Z,23.50
2023-03-01T10:12:02.462Z,22.00
2023-03-01T10:15:13.695Z,23.00
2023-03-01T10:18:22.469Z,21.90
2023-03-01T10:21:28.448Z,21.80
2023-03-01T10:24:36.646Z,22.10
2023-03-01T10:27:45.702Z,18.60
2023-03-01T10:30:49.216Z,19.00
2023-03-01T10:33:56.044Z,19.40
2023-03-01T10:37:11.069Z,18.90
2023-03-01T10:40:14.570Z,16.80
2023-03-01T10:43:18.698Z,16.60
2023-03-01T10:46:29.843Z,16.70
2023-03-01T10:49:33.215Z,18.40
2023-03-01T10:52:38.869Z,18.20
2023-03-01T10:55:42.321Z,17.10
2023-03-01T10:59:21.075Z,16.90
2023-03-01T11:02:31.165Z,17.50
2023-03-01T11:05:34.764Z,17.50
2023-03-01T11:08:44.303Z,18.80
2023-03-01T11:11:56.038Z,17.00
2023-03-01T11:14:59.379Z,19.30
2023-03-01T11:18:13.929Z,20.70
2023-03-01T11:21:18.272Z,20.90
2023-03-01T11:24:30.202Z,22.00
2023-03-01T11:27:37.197Z,24.70
2023-03-01T11:31:06.738Z,24.60
2023-03-01T11:34:18.877Z,29.00
2023-03-01T11:37:33.687Z,32.40
2023-03-01T11:40:43.432Z,27.80
2023-03-01T11:44:12.841Z,25.50
2023-03-01T11:47:44.819Z,21.30
2023-03-01T11:50:49.965Z,22.20
2023-03-01T11:54:28.576Z,18.60
2023-03-01T11:57:43.811Z,19.20
2023-03-01T12:01:15.278Z,21.00
2023-03-01T12:04:42.930Z,20.00
2023-03-01T12:07:55.251Z,19.70
2023-03-01T12:11:13.476Z,19.40
2023-03-01T12:14:35.166Z,21.00
2023-03-01T12:18:13.785Z,17.60
2023-03-01T12:21:33.506Z,17.30
2023-03-01T12:24:58.622Z,15.80
2023-03-01T12:28:04.811Z,17.00
2023-03-01T12:31:31.357Z,13.20
2023-03-01T12:34:42.626Z,16.50
2023-03-01T12:38:12.349Z,15.90
2023-03-01T12:41:37.256Z,13.80
2023-03-01T12:44:40.529Z,16.30
2023-03-01T12:48:16.564Z,13.80
2023-03-01T12:51:25.365Z,17.50
2023-03-01T12:54:32.760Z,16.10
2023-03-01T12:57:44.127Z,17.20
2023-03-01T13:00:54.012Z,16.90
2023-03-01T13:04:00.975Z,14.90
2023-03-01T13:07:22.757Z,19.50
2023-03-01T13:10:56.667Z,20.60
2023-03-01T13:14:21.493Z,19.60
2023-03-01T13:17:44.200Z,18.90
2023-03-01T13:20:50.804Z,18.00
2023-03-01T13:23:54.107Z,17.70
2023-03-01T13:27:51.088Z,19.20
2023-03-01T13:30:54.394Z,15.20
2023-03-01T13:34:01.971Z,17.10
2023-03-01T13:37:19.579Z,17.90
2023-03-01T13:40:23.680Z,19.40
2023-03-01T13:43:37.280Z,17.30
2023-03-01T13:46:41.334Z,19.50
2023-03-01T13:49:47.679Z,16.50
2023-03-01T13:53:00.163Z,19.30
2023-03-01T13:59:18.650Z,25.60
2023-03-01T14:02:21.834Z,21.40
2023-03-01T14:05:25.112Z,21.70
2023-03-01T14:08:30.172Z,18.50
2023-03-01T14:11:45.309Z,21.30
2023-03-01T14:15:19.885Z,15.40
2023-03-01T14:18:34.546Z,16.70
2023-03-01T14:21:37.988Z,19.30
2023-03-01T14:24:48.627Z,16.10
2023-03-01T14:28:02.933Z,20.80
2023-03-01T14:31:52.430Z,21.20
2023-03-01T14:34:57.778Z,20.70
2023-03-01T14:38:01.308Z,24.20
2023-03-01T14:41:13.730Z,20.80
2023-03-01T14:47:27.129Z,19.20
2023-03-01T14:50:36.230Z,22.20
2023-03-01T14:53:50.375Z,26.90
2023-03-01T14:56:58.873Z,23.40
2023-03-01T15:00:06.484Z,23.00
2023-03-01T15:03:15.735Z,20.80
2023-03-01T15:06:22.701Z,24.70
2023-03-01T15:09:26.036Z,24.90
2023-03-01T15:12:29.190Z,24.90
2023-03-01T15:15:37.506Z,21.50
2023-03-01T15:18:49.604Z,22.90
2023-03-01T15:21:52.983Z,20.30
2023-03-01T15:24:56.735Z,19.90
2023-03-01T15:28:02.391Z,23.90
2023-03-01T15:31:20.252Z,20.70
2023-03-01T15:34:33.198Z,19.80
2023-03-01T15:37:41.281Z,18.20
2023-03-01T15:40:51.543Z,23.40
2023-03-01T15:43:56.884Z,21.00
2023-03-01T15:47:01.483Z,22.80
2023-03-01T15:50:05.442Z,23.00
2023-03-01T15:53:13.126Z,21.80
2023-03-01T15:56:16.463Z,20.10
2023-03-01T15:59:20.409Z,19.10
2023-03-01T16:02:25.411Z,21.50
2023-03-01T16:05:31.709Z,25.10
2023-03-01T16:08:34.936Z,24.40
2023-03-01T16:11:39.193Z,27.30
2023-03-01T16:14:43.071Z,26.00
2023-03-01T16:17:47.174Z,25.40
2023-03-01T16:20:55.227Z,28.80
2023-03-01T16:23:58.643Z,24.50
2023-03-01T16:27:01.910Z,32.60
2023-03-01T16:30:07.316Z,28.20
2023-03-01T16:33:25.185Z,28.10
2023-03-01T16:36:34.209Z,28.20
2023-03-01T16:39:39.721Z,27.70
2023-03-01T16:42:43.200Z,26.90
2023-03-01T16:45:47.561Z,31.20
2023-03-01T16:48:52.364Z,29.70
2023-03-01T16:51:55.631Z,30.50
2023-03-01T16:54:58.840Z,29.50
2023-03-01T16:58:02.605Z,32.20
2023-03-01T17:01:20.359Z,28.30
2023-03-01T17:04:23.587Z,30.40
2023-03-01T17:07:27.144Z,28.20
2023-03-01T17:10:30.429Z,26.50
2023-03-01T17:13:33.764Z,28.80
2023-03-01T17:16:39.433Z,33.30
2023-03-01T17:19:44.530Z,30.80
2023-03-01T17:22:52.765Z,30.30
2023-03-01T17:25:56.406Z,32.40
2023-03-01T17:29:04.043Z,30.80
2023-03-01T17:32:08.396Z,32.00
2023-03-01T17:35:12.533Z,28.10
2023-03-01T17:38:18.929Z,30.30
2023-03-01T17:41:25.140Z,27.60
2023-03-01T17:44:36.720Z,29.10
2023-03-01T17:47:40.630Z,26.10
2023-03-01T17:50:44.842Z,29.50
2023-03-01T17:53:48.047Z,28.90
2023-03-01T17:56:51.690Z,28.10
2023-03-01T17:59:55.062Z,27.60
2023-03-01T18:02:59.159Z,24.40
2023-03-01T18:06:02.938Z,28.70
2023-03-01T18:09:06.376Z,26.40
2023-03-01T18:12:10.891Z,34.00
2023-03-01T18:15:14.130Z,32.90
2023-03-01T18:18:17.942Z,34.20
2023-03-01T18:21:21.620Z,43.50
2023-03-01T18:24:24.941Z,33.90
2023-03-01T18:27:28.177Z,37.10
2023-03-01T18:30:32.863Z,44.70
2023-03-01T18:33:36.238Z,52.70
2023-03-01T18:36:41.405Z,60.10
2023-03-01T18:39:44.752Z,51.60
2023-03-01T18:42:48.113Z,45.00
2023-03-01T18:45:57.630Z,46.20
2023-03-01T18:49:00.987Z,46.80
2023-03-01T18:52:04.739Z,42.70
2023-03-01T18:55:08.306Z,45.10
2023-03-01T18:58:11.490Z,42.20
2023-03-01T19:01:26.852Z,40.40
2023-03-01T19:04:30.119Z,42.20
2023-03-01T19:07:35.463Z,48.60
2023-03-01T19:10:38.780Z,43.20
2023-03-01T19:13:42.005Z,48.90
2023-03-01T19:16:45.309Z,49.40
2023-03-01T19:19:50.165Z,50.40
2023-03-01T19:22:53.433Z,51.20
2023-03-01T19:26:11.554Z,55.70
2023-03-01T19:29:14.897Z,55.60
2023-03-01T19:32:18.326Z,70.30
2023-03-01T19:35:23.472Z,61.80
2023-03-01T19:38:28.136Z,57.30
2023-03-01T19:41:31.828Z,63.70
2023-03-01T19:44:35.085Z,67.00
2023-03-01T19:47:38.366Z,75.60
2023-03-01T19:50:45.166Z,76.00
2023-03-01T19:53:48.632Z,79.40
2023-03-01T19:56:52.038Z,78.00
2023-03-01T19:59:55.273Z,76.90
2023-03-01T20:02:58.701Z,84.30
2023-03-01T20:06:10.974Z,77.20
2023-03-01T20:09:21.347Z,75.40
2023-03-01T20:12:25.003Z,74.10
2023-03-01T20:15:28.656Z,76.70
2023-03-01T20:18:32.153Z,80.80
2023-03-01T20:21:35.500Z,92.30
2023-03-01T20:24:38.777Z,93.60
2023-03-01T20:27:47.141Z,98.30
2023-03-01T20:30:50.347Z,100.90
2023-03-01T20:33:58.512Z,122.20
2023-03-01T20:37:02.827Z,118.40
2023-03-01T20:40:07.309Z,128.10
2023-03-01T20:43:10.643Z,152.90
2023-03-01T20:46:15.138Z,144.20
2023-03-01T20:49:18.590Z,104.70
2023-03-01T20:52:21.912Z,92.90
2023-03-01T20:55:25.250Z,76.80
2023-03-01T20:58:32.734Z,72.50
2023-03-01T21:01:37.902Z,74.80
2023-03-01T21:04:41.207Z,76.20
2023-03-01T21:07:45.676Z,67.80
2023-03-01T21:10:53.199Z,67.60
2023-03-01T21:13:58.433Z,64.60
2023-03-01T21:17:01.579Z,67.60
2023-03-01T21:20:05.974Z,68.70
2023-03-01T21:23:09.825Z,70.00
2023-03-01T21:26:15.824Z,69.00
2023-03-01T21:29:19.055Z,70.60
2023-03-01T21:32:22.407Z,69.30
2023-03-01T21:35:25.784Z,70.80
2023-03-01T21:38:37.916Z,78.80
2023-03-01T21:41:41.258Z,74.50
2023-03-01T21:44:44.453Z,73.90
2023-03-01T21:47:47.638Z,72.60
2023-03-01T21:50:58.793Z,74.00
2023-03-01T21:54:02.912Z,73.20
2023-03-01T21:57:06.125Z,75.60
2023-03-01T22:00:11.270Z,73.90
2023-03-01T22:03:16.561Z,75.90
2023-03-01T22:06:29.675Z,75.60
2023-03-01T22:09:35.023Z,71.90
2023-03-01T22:12:38.319Z,80.80
2023-03-01T22:15:43.230Z,79.20
2023-03-01T22:18:47.116Z,87.30
2023-03-01T22:21:52.772Z,94.90
2023-03-01T22:24:55.998Z,102.20
2023-03-01T22:27:59.363Z,98.50
2023-03-01T22:31:06.333Z,100.00
2023-03-01T22:34:09.939Z,104.00
2023-03-01T22:37:13.432Z,97.30
2023-03-01T22:40:16.670Z,110.20
2023-03-01T22:43:19.901Z,102.00
2023-03-01T22:46:24.114Z,103.30
2023-03-01T22:49:27.371Z,99.70
2023-03-01T22:52:30.598Z,106.70
2023-03-01T22:55:33.794Z,103.70
2023-03-01T22:58:37.070Z,97.30
2023-03-01T23:01:42.292Z,89.70
2023-03-01T23:04:48.388Z,82.70
2023-03-01T23:07:51.585Z,97.40
2023-03-01T23:10:54.804Z,85.80
2023-03-01T23:13:58.755Z,93.00
2023-03-01T23:17:02.697Z,92.00
2023-03-01T23:20:10.504Z,84.90
2023-03-01T23:23:13.987Z,92.00
2023-03-01T23:26:18.462Z,89.00
2023-03-01T23:29:22.291Z,87.20
2023-03-01T23:32:25.914Z,81.20
2023-03-01T23:35:29.253Z,81.30
2023-03-01T23:38:32.684Z,79.30
2023-03-01T23:41:36.022Z,90.80
2023-03-01T23:44:40.874Z,90.00
2023-03-01T23:47:44.414Z,91.80
2023-03-01T23:50:48.397Z,90.30
2023-03-01T23:53:55.664Z,87.30
2023-03-01T23:56:59.005Z,83.90
